sensor_id;sensor_type;location;lat;lon;timestamp;P1;durP1;ratioP1;P2;durP2;ratioP2
10509;SDS011;5303;53.266;10.410;2022-12-07T00:01:57;20.30;;;13.07;;
10509;SDS011;5303;53.266;10.410;2022-12-07T00:04:22;18.53;;;13.07;;
10509;SDS011;5303;53.266;10.410;2022-12-07T00:06:50;19.83;;;13.77;;
10509;SDS011;5303;53.266;10.410;2022-12-07T00:09:17;22.50;;;13.90;;
10509;SDS011;5303;53.266;10.410;2022-12-07T00:11:43;20.40;;;12.67;;
10509;SDS011;5303;53.266;10.410;2022-12-07T00:14:13;17.60;;;11.53;;
10509;SDS011;5303;53.266;10.410;2022-12-07T00:16:40;17.30;;;11.97;;
10509;SDS011;5303;53.266;10.410;2022-12-07T00:19:07;17.90;;;11.90;;
10509;SDS011;5303;53.266;10.410;2022-12-07T00:21:33;19.87;;;11.60;;
10509;SDS011;5303;53.266;10.410;2022-12-07T00:24:00;16.70;;;12.17;;
10509;SDS011;5303;53.266;10.410;2022-12-07T00:28:57;16.47;;;11.57;;
10509;SDS011;5303;53.266;10.410;2022-12-07T00:31:29;16.27;;;11.37;;
10509;SDS011;5303;53.266;10.410;2022-12-07T00:33:58;15.83;;;10.83;;
10509;SDS011;5303;53.266;10.410;2022-12-07T00:36:24;18.53;;;12.03;;
10509;SDS011;5303;53.266;10.410;2022-12-07T00:38:50;15.57;;;11.37;;
10509;SDS011;5303;53.266;10.410;2022-12-07T00:41:19;15.40;;;10.97;;
10509;SDS011;5303;53.266;10.410;2022-12-07T00:43:46;15.00;;;10.57;;
10509;SDS011;5303;53.266;10.410;2022-12-07T00:46:13;16.93;;;11.53;;
10509;SDS011;5303;53.266;10.410;2022-12-07T00:48:39;16.27;;;11.73;;
10509;SDS011;5303;53.266;10.410;2022-12-07T00:51:05;17.27;;;11.77;;
10509;SDS011;5303;53.266;10.410;2022-12-07T00:53:31;16.83;;;12.00;;
10509;SDS011;5303;53.266;10.410;2022-12-07T00:56:04;16.27;;;10.87;;
10509;SDS011;5303;53.266;10.410;2022-12-07T00:58:34;17.03;;;11.60;;
10509;SDS011;5303;53.266;10.410;2022-12-07T01:01:00;19.30;;;12.07;;
10509;SDS011;5303;53.266;10.410;2022-12-07T01:03:27;19.23;;;12.57;;
10509;SDS011;5303;53.266;10.410;2022-12-07T01:05:53;19.90;;;12.23;;
10509;SDS011;5303;53.266;10.410;2022-12-07T01:08:19;19.77;;;12.10;;
10509;SDS011;5303;53.266;10.410;2022-12-07T01:10:45;18.57;;;11.93;;
10509;SDS011;5303;53.266;10.410;2022-12-07T01:13:11;19.00;;;12.40;;
10509;SDS011;5303;53.266;10.410;2022-12-07T01:15:43;16.63;;;10.90;;
10509;SDS011;5303;53.266;10.410;2022-12-07T01:18:09;17.43;;;10.50;;
10509;SDS011;5303;53.266;10.410;2022-12-07T01:20:35;15.97;;;10.33;;
10509;SDS011;5303;53.266;10.410;2022-12-07T01:23:01;20.47;;;10.83;;
10509;SDS011;5303;53.266;10.410;2022-12-07T01:25:28;16.13;;;10.07;;
10509;SDS011;5303;53.266;10.410;2022-12-07T01:27:53;16.13;;;10.60;;
10509;SDS011;5303;53.266;10.410;2022-12-07T01:30:18;16.57;;;10.30;;
10509;SDS011;5303;53.266;10.410;2022-12-07T01:32:44;17.97;;;10.97;;
10509;SDS011;5303;53.266;10.410;2022-12-07T01:35:09;16.33;;;10.70;;
10509;SDS011;5303;53.266;10.410;2022-12-07T01:37:38;14.13;;;9.77;;
10509;SDS011;5303;53.266;10.410;2022-12-07T01:40:06;15.83;;;10.57;;
10509;SDS011;5303;53.266;10.410;2022-12-07T01:42:33;14.87;;;10.80;;
10509;SDS011;5303;53.266;10.410;2022-12-07T01:47:43;16.10;;;11.40;;
10509;SDS011;5303;53.266;10.410;2022-12-07T01:50:18;17.10;;;11.13;;
10509;SDS011;5303;53.266;10.410;2022-12-07T01:52:44;20.93;;;12.13;;
10509;SDS011;5303;53.266;10.410;2022-12-07T01:55:14;20.27;;;11.47;;
10509;SDS011;5303;53.266;10.410;2022-12-07T01:57:41;18.30;;;11.23;;
10509;SDS011;5303;53.266;10.410;2022-12-07T02:00:11;18.67;;;10.63;;
10509;SDS011;5303;53.266;10.410;2022-12-07T02:02:38;16.80;;;11.03;;
10509;SDS011;5303;53.266;10.410;2022-12-07T02:05:08;16.87;;;11.30;;
10509;SDS011;5303;53.266;10.410;2022-12-07T02:07:34;18.27;;;11.60;;
10509;SDS011;5303;53.266;10.410;2022-12-07T02:10:15;17.67;;;11.27;;
10509;SDS011;5303;53.266;10.410;2022-12-07T02:12:48;18.93;;;10.83;;
10509;SDS011;5303;53.266;10.410;2022-12-07T02:15:18;16.20;;;10.53;;
10509;SDS011;5303;53.266;10.410;2022-12-07T02:20:33;14.83;;;10.60;;
10509;SDS011;5303;53.266;10.410;2022-12-07T02:31:23;14.80;;;9.47;;
10509;SDS011;5303;53.266;10.410;2022-12-07T02:33:54;13.67;;;9.43;;
10509;SDS011;5303;53.266;10.410;2022-12-07T02:36:32;14.37;;;8.97;;
10509;SDS011;5303;53.266;10.410;2022-12-07T02:39:02;13.53;;;8.70;;
10509;SDS011;5303;53.266;10.410;2022-12-07T02:41:43;13.40;;;9.63;;
10509;SDS011;5303;53.266;10.410;2022-12-07T02:44:13;15.10;;;9.83;;
10509;SDS011;5303;53.266;10.410;2022-12-07T02:46:47;12.87;;;9.03;;
10509;SDS011;5303;53.266;10.410;2022-12-07T02:49:17;12.73;;;9.50;;
10509;SDS011;5303;53.266;10.410;2022-12-07T02:51:45;14.87;;;8.90;;
10509;SDS011;5303;53.266;10.410;2022-12-07T02:54:12;14.50;;;8.60;;
10509;SDS011;5303;53.266;10.410;2022-12-07T03:07:28;12.00;;;7.17;;
10509;SDS011;5303;53.266;10.410;2022-12-07T03:10:07;11.30;;;7.03;;
10509;SDS011;5303;53.266;10.410;2022-12-07T03:13:00;10.63;;;6.43;;
10509;SDS011;5303;53.266;10.410;2022-12-07T03:18:28;13.77;;;7.27;;
10509;SDS011;5303;53.266;10.410;2022-12-07T03:20:57;12.00;;;6.67;;
10509;SDS011;5303;53.266;10.410;2022-12-07T03:23:29;9.10;;;5.50;;
10509;SDS011;5303;53.266;10.410;2022-12-07T03:26:00;10.97;;;6.50;;
10509;SDS011;5303;53.266;10.410;2022-12-07T03:28:31;9.77;;;5.73;;
10509;SDS011;5303;53.266;10.410;2022-12-07T03:31:03;10.50;;;5.97;;
10509;SDS011;5303;53.266;10.410;2022-12-07T03:33:36;10.10;;;6.67;;
10509;SDS011;5303;53.266;10.410;2022-12-07T03:36:09;9.93;;;5.50;;
10509;SDS011;5303;53.266;10.410;2022-12-07T03:41:11;8.93;;;5.17;;
10509;SDS011;5303;53.266;10.410;2022-12-07T03:43:44;12.27;;;5.57;;
10509;SDS011;5303;53.266;10.410;2022-12-07T03:46:20;10.87;;;5.43;;
10509;SDS011;5303;53.266;10.410;2022-12-07T03:48:57;8.70;;;4.80;;
10509;SDS011;5303;53.266;10.410;2022-12-07T03:51:43;14.67;;;6.07;;
10509;SDS011;5303;53.266;10.410;2022-12-07T03:54:18;9.73;;;5.50;;
10509;SDS011;5303;53.266;10.410;2022-12-07T03:56:47;10.50;;;5.30;;
10509;SDS011;5303;53.266;10.410;2022-12-07T03:59:13;10.57;;;5.43;;
10509;SDS011;5303;53.266;10.410;2022-12-07T04:01:43;8.47;;;5.10;;
10509;SDS011;5303;53.266;10.410;2022-12-07T04:04:10;10.23;;;5.00;;
10509;SDS011;5303;53.266;10.410;2022-12-07T04:06:35;7.40;;;4.83;;
10509;SDS011;5303;53.266;10.410;2022-12-07T04:09:01;12.50;;;4.80;;
10509;SDS011;5303;53.266;10.410;2022-12-07T04:11:26;9.13;;;4.67;;
10509;SDS011;5303;53.266;10.410;2022-12-07T04:13:51;7.57;;;4.50;;
10509;SDS011;5303;53.266;10.410;2022-12-07T04:16:35;9.20;;;5.20;;
10509;SDS011;5303;53.266;10.410;2022-12-07T04:19:00;10.10;;;4.73;;
10509;SDS011;5303;53.266;10.410;2022-12-07T04:21:25;6.33;;;4.23;;
10509;SDS011;5303;53.266;10.410;2022-12-07T04:23:51;7.43;;;4.53;;
10509;SDS011;5303;53.266;10.410;2022-12-07T04:26:16;8.70;;;5.27;;
10509;SDS011;5303;53.266;10.410;2022-12-07T04:28:41;7.77;;;4.57;;
10509;SDS011;5303;53.266;10.410;2022-12-07T04:31:07;9.37;;;4.73;;
10509;SDS011;5303;53.266;10.410;2022-12-07T04:33:32;8.93;;;3.93;;
10509;SDS011;5303;53.266;10.410;2022-12-07T04:35:57;8.13;;;4.30;;
10509;SDS011;5303;53.266;10.410;2022-12-07T04:38:23;9.10;;;4.70;;
10509;SDS011;5303;53.266;10.410;2022-12-07T04:40:48;8.17;;;5.00;;
10509;SDS011;5303;53.266;10.410;2022-12-07T04:43:13;10.43;;;4.93;;
10509;SDS011;5303;53.266;10.410;2022-12-07T04:45:38;8.10;;;4.50;;
10509;SDS011;5303;53.266;10.410;2022-12-07T04:48:04;7.83;;;4.20;;
10509;SDS011;5303;53.266;10.410;2022-12-07T04:50:29;7.17;;;4.10;;
10509;SDS011;5303;53.266;10.410;2022-12-07T04:52:54;8.63;;;4.60;;
10509;SDS011;5303;53.266;10.410;2022-12-07T04:55:20;8.20;;;4.37;;
10509;SDS011;5303;53.266;10.410;2022-12-07T04:57:45;9.75;;;5.30;;
10509;SDS011;5303;53.266;10.410;2022-12-07T05:00:11;7.57;;;4.17;;
10509;SDS011;5303;53.266;10.410;2022-12-07T05:02:37;5.47;;;3.57;;
10509;SDS011;5303;53.266;10.410;2022-12-07T05:05:02;6.73;;;4.00;;
10509;SDS011;5303;53.266;10.410;2022-12-07T05:07:28;10.10;;;3.93;;
10509;SDS011;5303;53.266;10.410;2022-12-07T05:09:53;8.00;;;4.00;;
10509;SDS011;5303;53.266;10.410;2022-12-07T05:12:18;5.97;;;3.70;;
10509;SDS011;5303;53.266;10.410;2022-12-07T05:14:43;6.93;;;3.80;;
10509;SDS011;5303;53.266;10.410;2022-12-07T05:17:09;7.40;;;3.93;;
10509;SDS011;5303;53.266;10.410;2022-12-07T05:19:34;8.03;;;4.20;;
10509;SDS011;5303;53.266;10.410;2022-12-07T05:21:59;6.73;;;3.60;;
10509;SDS011;5303;53.266;10.410;2022-12-07T05:24:24;7.03;;;3.87;;
10509;SDS011;5303;53.266;10.410;2022-12-07T05:26:50;5.73;;;3.57;;
10509;SDS011;5303;53.266;10.410;2022-12-07T05:29:16;7.70;;;3.90;;
10509;SDS011;5303;53.266;10.410;2022-12-07T05:31:42;7.40;;;3.60;;
10509;SDS011;5303;53.266;10.410;2022-12-07T05:34:09;7.70;;;3.87;;
10509;SDS011;5303;53.266;10.410;2022-12-07T05:36:34;12.63;;;3.50;;
10509;SDS011;5303;53.266;10.410;2022-12-07T05:39:00;6.23;;;3.30;;
10509;SDS011;5303;53.266;10.410;2022-12-07T05:41:25;6.67;;;3.13;;
10509;SDS011;5303;53.266;10.410;2022-12-07T05:44:09;7.07;;;3.20;;
10509;SDS011;5303;53.266;10.410;2022-12-07T05:46:34;4.90;;;2.73;;
10509;SDS011;5303;53.266;10.410;2022-12-07T05:49:00;4.50;;;3.00;;
10509;SDS011;5303;53.266;10.410;2022-12-07T05:51:26;8.60;;;2.90;;
10509;SDS011;5303;53.266;10.410;2022-12-07T05:53:51;4.93;;;2.70;;
10509;SDS011;5303;53.266;10.410;2022-12-07T05:56:17;4.40;;;3.07;;
10509;SDS011;5303;53.266;10.410;2022-12-07T05:58:42;5.70;;;3.27;;
10509;SDS011;5303;53.266;10.410;2022-12-07T06:01:26;5.80;;;2.80;;
10509;SDS011;5303;53.266;10.410;2022-12-07T06:03:51;3.57;;;2.70;;
10509;SDS011;5303;53.266;10.410;2022-12-07T06:06:16;4.37;;;2.83;;
10509;SDS011;5303;53.266;10.410;2022-12-07T06:08:42;4.23;;;3.07;;
10509;SDS011;5303;53.266;10.410;2022-12-07T06:11:07;3.27;;;2.73;;
10509;SDS011;5303;53.266;10.410;2022-12-07T06:13:51;5.77;;;3.10;;
10509;SDS011;5303;53.266;10.410;2022-12-07T06:16:17;8.47;;;3.17;;
10509;SDS011;5303;53.266;10.410;2022-12-07T06:18:42;4.93;;;3.10;;
10509;SDS011;5303;53.266;10.410;2022-12-07T06:21:07;5.43;;;2.90;;
10509;SDS011;5303;53.266;10.410;2022-12-07T06:23:33;6.43;;;3.13;;
10509;SDS011;5303;53.266;10.410;2022-12-07T06:25:58;4.97;;;2.53;;
10509;SDS011;5303;53.266;10.410;2022-12-07T06:28:23;4.93;;;2.80;;
10509;SDS011;5303;53.266;10.410;2022-12-07T06:30:56;4.17;;;3.07;;
10509;SDS011;5303;53.266;10.410;2022-12-07T06:33:23;5.50;;;2.90;;
10509;SDS011;5303;53.266;10.410;2022-12-07T06:35:48;6.77;;;3.10;;
10509;SDS011;5303;53.266;10.410;2022-12-07T06:38:13;4.83;;;3.23;;
10509;SDS011;5303;53.266;10.410;2022-12-07T06:40:39;6.53;;;3.03;;
10509;SDS011;5303;53.266;10.410;2022-12-07T06:43:04;7.37;;;3.87;;
10509;SDS011;5303;53.266;10.410;2022-12-07T06:45:29;5.33;;;3.30;;
10509;SDS011;5303;53.266;10.410;2022-12-07T06:47:54;6.13;;;3.53;;
10509;SDS011;5303;53.266;10.410;2022-12-07T06:50:20;7.43;;;3.87;;
10509;SDS011;5303;53.266;10.410;2022-12-07T06:52:45;8.40;;;3.47;;
10509;SDS011;5303;53.266;10.410;2022-12-07T06:55:10;6.83;;;4.00;;
10509;SDS011;5303;53.266;10.410;2022-12-07T06:57:35;7.30;;;3.40;;
10509;SDS011;5303;53.266;10.410;2022-12-07T07:00:01;6.83;;;3.80;;
10509;SDS011;5303;53.266;10.410;2022-12-07T07:02:27;6.13;;;3.10;;
10509;SDS011;5303;53.266;10.410;2022-12-07T07:04:53;6.03;;;3.03;;
10509;SDS011;5303;53.266;10.410;2022-12-07T07:07:18;8.60;;;3.17;;
10509;SDS011;5303;53.266;10.410;2022-12-07T07:09:43;8.37;;;3.20;;
10509;SDS011;5303;53.266;10.410;2022-12-07T07:12:08;6.23;;;3.50;;
10509;SDS011;5303;53.266;10.410;2022-12-07T07:14:34;5.73;;;2.70;;
10509;SDS011;5303;53.266;10.410;2022-12-07T07:16:59;3.80;;;3.03;;
10509;SDS011;5303;53.266;10.410;2022-12-07T07:19:25;7.53;;;3.10;;
10509;SDS011;5303;53.266;10.410;2022-12-07T07:21:50;6.07;;;3.00;;
10509;SDS011;5303;53.266;10.410;2022-12-07T07:24:15;6.57;;;2.90;;
10509;SDS011;5303;53.266;10.410;2022-12-07T07:26:40;6.27;;;2.93;;
10509;SDS011;5303;53.266;10.410;2022-12-07T07:29:06;3.17;;;2.47;;
10509;SDS011;5303;53.266;10.410;2022-12-07T07:31:31;4.37;;;2.30;;
10509;SDS011;5303;53.266;10.410;2022-12-07T07:33:56;5.17;;;2.67;;
10509;SDS011;5303;53.266;10.410;2022-12-07T07:36:22;5.40;;;2.73;;
10509;SDS011;5303;53.266;10.410;2022-12-07T07:38:47;4.17;;;2.60;;
10509;SDS011;5303;53.266;10.410;2022-12-07T07:41:12;4.50;;;2.53;;
10509;SDS011;5303;53.266;10.410;2022-12-07T07:43:37;7.33;;;2.43;;
10509;SDS011;5303;53.266;10.410;2022-12-07T07:46:03;3.03;;;2.27;;
10509;SDS011;5303;53.266;10.410;2022-12-07T07:48:28;5.33;;;2.87;;
10509;SDS011;5303;53.266;10.410;2022-12-07T07:50:53;5.70;;;3.03;;
10509;SDS011;5303;53.266;10.410;2022-12-07T07:53:19;5.40;;;2.77;;
10509;SDS011;5303;53.266;10.410;2022-12-07T07:55:51;7.23;;;3.20;;
10509;SDS011;5303;53.266;10.410;2022-12-07T07:58:19;4.30;;;2.93;;
10509;SDS011;5303;53.266;10.410;2022-12-07T08:00:45;5.67;;;2.93;;
10509;SDS011;5303;53.266;10.410;2022-12-07T08:03:10;5.10;;;2.60;;
10509;SDS011;5303;53.266;10.410;2022-12-07T08:05:36;4.87;;;2.63;;
10509;SDS011;5303;53.266;10.410;2022-12-07T08:08:02;4.07;;;2.10;;
10509;SDS011;5303;53.266;10.410;2022-12-07T08:10:27;4.33;;;2.43;;
10509;SDS011;5303;53.266;10.410;2022-12-07T08:12:53;2.63;;;2.40;;
10509;SDS011;5303;53.266;10.410;2022-12-07T08:15:38;3.43;;;2.60;;
10509;SDS011;5303;53.266;10.410;2022-12-07T08:18:13;4.00;;;2.50;;
10509;SDS011;5303;53.266;10.410;2022-12-07T08:20:42;6.30;;;2.90;;
10509;SDS011;5303;53.266;10.410;2022-12-07T08:23:07;5.43;;;2.50;;
10509;SDS011;5303;53.266;10.410;2022-12-07T08:25:34;4.97;;;2.60;;
10509;SDS011;5303;53.266;10.410;2022-12-07T08:27:59;3.83;;;2.30;;
10509;SDS011;5303;53.266;10.410;2022-12-07T08:30:27;3.83;;;2.47;;
10509;SDS011;5303;53.266;10.410;2022-12-07T08:32:53;4.53;;;2.50;;
10509;SDS011;5303;53.266;10.410;2022-12-07T08:35:18;6.77;;;2.40;;
10509;SDS011;5303;53.266;10.410;2022-12-07T08:37:44;7.27;;;2.63;;
10509;SDS011;5303;53.266;10.410;2022-12-07T08:40:10;3.23;;;2.40;;
10509;SDS011;5303;53.266;10.410;2022-12-07T08:42:40;7.23;;;2.60;;
10509;SDS011;5303;53.266;10.410;2022-12-07T08:45:07;3.93;;;2.20;;
10509;SDS011;5303;53.266;10.410;2022-12-07T08:47:34;3.57;;;2.10;;
10509;SDS011;5303;53.266;10.410;2022-12-07T08:50:02;6.03;;;2.63;;
10509;SDS011;5303;53.266;10.410;2022-12-07T08:52:30;4.87;;;2.40;;
10509;SDS011;5303;53.266;10.410;2022-12-07T08:54:56;6.27;;;2.67;;
10509;SDS011;5303;53.266;10.410;2022-12-07T08:57:23;6.57;;;3.00;;
10509;SDS011;5303;53.266;10.410;2022-12-07T08:59:49;4.97;;;2.80;;
10509;SDS011;5303;53.266;10.410;2022-12-07T09:02:14;5.87;;;2.73;;
10509;SDS011;5303;53.266;10.410;2022-12-07T09:04:40;3.27;;;2.30;;
10509;SDS011;5303;53.266;10.410;2022-12-07T09:07:05;4.73;;;2.20;;
10509;SDS011;5303;53.266;10.410;2022-12-07T09:09:31;9.80;;;2.80;;
10509;SDS011;5303;53.266;10.410;2022-12-07T09:11:56;3.97;;;1.90;;
10509;SDS011;5303;53.266;10.410;2022-12-07T09:14:21;6.27;;;2.20;;
10509;SDS011;5303;53.266;10.410;2022-12-07T09:16:47;4.33;;;2.50;;
10509;SDS011;5303;53.266;10.410;2022-12-07T09:19:12;4.87;;;2.60;;
10509;SDS011;5303;53.266;10.410;2022-12-07T09:21:37;3.97;;;2.40;;
10509;SDS011;5303;53.266;10.410;2022-12-07T09:24:03;5.47;;;2.13;;
10509;SDS011;5303;53.266;10.410;2022-12-07T09:26:28;5.90;;;2.10;;
10509;SDS011;5303;53.266;10.410;2022-12-07T09:28:53;4.97;;;2.07;;
10509;SDS011;5303;53.266;10.410;2022-12-07T09:31:19;4.23;;;2.20;;
10509;SDS011;5303;53.266;10.410;2022-12-07T09:33:44;2.30;;;2.10;;
10509;SDS011;5303;53.266;10.410;2022-12-07T09:36:09;5.00;;;2.07;;
10509;SDS011;5303;53.266;10.410;2022-12-07T09:38:35;3.30;;;2.00;;
10509;SDS011;5303;53.266;10.410;2022-12-07T09:41:04;3.90;;;2.00;;
10509;SDS011;5303;53.266;10.410;2022-12-07T09:43:31;5.73;;;2.03;;
10509;SDS011;5303;53.266;10.410;2022-12-07T09:45:59;3.80;;;2.10;;
10509;SDS011;5303;53.266;10.410;2022-12-07T09:50:58;4.73;;;2.27;;
10509;SDS011;5303;53.266;10.410;2022-12-07T09:53:30;4.73;;;2.13;;
10509;SDS011;5303;53.266;10.410;2022-12-07T09:55:59;4.67;;;2.10;;
10509;SDS011;5303;53.266;10.410;2022-12-07T09:58:26;5.57;;;2.10;;
10509;SDS011;5303;53.266;10.410;2022-12-07T10:00:55;5.93;;;3.20;;
10509;SDS011;5303;53.266;10.410;2022-12-07T10:03:22;4.43;;;2.30;;
10509;SDS011;5303;53.266;10.410;2022-12-07T10:05:48;4.73;;;1.93;;
10509;SDS011;5303;53.266;10.410;2022-12-07T10:08:16;5.43;;;1.80;;
10509;SDS011;5303;53.266;10.410;2022-12-07T10:10:42;5.70;;;2.30;;
10509;SDS011;5303;53.266;10.410;2022-12-07T10:13:10;4.07;;;2.10;;
10509;SDS011;5303;53.266;10.410;2022-12-07T10:15:41;3.37;;;1.90;;
10509;SDS011;5303;53.266;10.410;2022-12-07T10:21:11;4.10;;;2.20;;
10509;SDS011;5303;53.266;10.410;2022-12-07T10:23:39;5.00;;;2.00;;
10509;SDS011;5303;53.266;10.410;2022-12-07T10:28:53;4.57;;;2.07;;
10509;SDS011;5303;53.266;10.410;2022-12-07T10:31:21;6.03;;;2.10;;
10509;SDS011;5303;53.266;10.410;2022-12-07T10:36:39;2.27;;;1.70;;
10509;SDS011;5303;53.266;10.410;2022-12-07T10:41:56;4.50;;;1.73;;
10509;SDS011;5303;53.266;10.410;2022-12-07T10:44:30;3.50;;;1.60;;
10509;SDS011;5303;53.266;10.410;2022-12-07T10:52:23;2.60;;;1.30;;
10509;SDS011;5303;53.266;10.410;2022-12-07T11:00:39;3.23;;;1.57;;
10509;SDS011;5303;53.266;10.410;2022-12-07T11:12:14;5.27;;;1.90;;
10509;SDS011;5303;53.266;10.410;2022-12-07T11:14:59;2.57;;;1.10;;
10509;SDS011;5303;53.266;10.410;2022-12-07T11:17:49;1.90;;;0.90;;
10509;SDS011;5303;53.266;10.410;2022-12-07T11:20:28;3.67;;;1.47;;
10509;SDS011;5303;53.266;10.410;2022-12-07T11:30:45;3.67;;;1.40;;
10509;SDS011;5303;53.266;10.410;2022-12-07T11:33:36;5.03;;;1.60;;
10509;SDS011;5303;53.266;10.410;2022-12-07T11:39:00;3.90;;;1.47;;
10509;SDS011;5303;53.266;10.410;2022-12-07T11:41:30;1.93;;;1.10;;
10509;SDS011;5303;53.266;10.410;2022-12-07T11:46:50;3.13;;;1.23;;
10509;SDS011;5303;53.266;10.410;2022-12-07T11:53:03;4.33;;;1.27;;
10509;SDS011;5303;53.266;10.410;2022-12-07T11:55:05;3.57;;;1.30;;
10509;SDS011;5303;53.266;10.410;2022-12-07T11:57:44;4.50;;;1.30;;
10509;SDS011;5303;53.266;10.410;2022-12-07T12:00:15;3.67;;;1.70;;
10509;SDS011;5303;53.266;10.410;2022-12-07T12:02:50;6.03;;;1.77;;
10509;SDS011;5303;53.266;10.410;2022-12-07T12:05:22;3.92;;;1.70;;
10509;SDS011;5303;53.266;10.410;2022-12-07T12:07:52;5.17;;;1.60;;
10509;SDS011;5303;53.266;10.410;2022-12-07T12:10:45;2.93;;;1.33;;
10509;SDS011;5303;53.266;10.410;2022-12-07T12:13:16;4.28;;;1.60;;
10509;SDS011;5303;53.266;10.410;2022-12-07T12:21:30;3.00;;;1.73;;
10509;SDS011;5303;53.266;10.410;2022-12-07T12:26:29;5.47;;;1.70;;
10509;SDS011;5303;53.266;10.410;2022-12-07T12:29:11;7.73;;;1.80;;
10509;SDS011;5303;53.266;10.410;2022-12-07T12:31:47;7.10;;;1.60;;
10509;SDS011;5303;53.266;10.410;2022-12-07T12:34:38;6.10;;;1.87;;
10509;SDS011;5303;53.266;10.410;2022-12-07T12:42:47;5.80;;;2.07;;
10509;SDS011;5303;53.266;10.410;2022-12-07T12:45:18;3.90;;;1.67;;
10509;SDS011;5303;53.266;10.410;2022-12-07T12:47:56;4.17;;;1.57;;
10509;SDS011;5303;53.266;10.410;2022-12-07T12:50:23;2.83;;;1.50;;
10509;SDS011;5303;53.266;10.410;2022-12-07T12:52:51;4.20;;;1.60;;
10509;SDS011;5303;53.266;10.410;2022-12-07T12:55:31;4.07;;;1.50;;
10509;SDS011;5303;53.266;10.410;2022-12-07T13:00:47;5.20;;;2.00;;
10509;SDS011;5303;53.266;10.410;2022-12-07T13:03:33;8.40;;;2.80;;
10509;SDS011;5303;53.266;10.410;2022-12-07T13:09:00;6.00;;;2.23;;
10509;SDS011;5303;53.266;10.410;2022-12-07T13:17:00;5.40;;;1.73;;
10509;SDS011;5303;53.266;10.410;2022-12-07T13:22:51;3.77;;;1.90;;
10509;SDS011;5303;53.266;10.410;2022-12-07T13:28:14;7.85;;;2.38;;
10509;SDS011;5303;53.266;10.410;2022-12-07T13:30:53;3.77;;;1.80;;
10509;SDS011;5303;53.266;10.410;2022-12-07T13:33:27;6.93;;;2.10;;
10509;SDS011;5303;53.266;10.410;2022-12-07T13:35:54;5.83;;;2.10;;
10509;SDS011;5303;53.266;10.410;2022-12-07T13:38:34;6.20;;;1.87;;
10509;SDS011;5303;53.266;10.410;2022-12-07T13:43:27;7.33;;;1.73;;
10509;SDS011;5303;53.266;10.410;2022-12-07T13:45:56;4.20;;;1.80;;
10509;SDS011;5303;53.266;10.410;2022-12-07T13:48:32;4.40;;;1.80;;
10509;SDS011;5303;53.266;10.410;2022-12-07T13:51:02;3.23;;;1.53;;
10509;SDS011;5303;53.266;10.410;2022-12-07T13:53:28;4.67;;;1.83;;
10509;SDS011;5303;53.266;10.410;2022-12-07T13:55:55;6.67;;;1.90;;
10509;SDS011;5303;53.266;10.410;2022-12-07T13:58:25;5.57;;;2.23;;
10509;SDS011;5303;53.266;10.410;2022-12-07T14:00:52;5.17;;;1.97;;
10509;SDS011;5303;53.266;10.410;2022-12-07T14:05:43;6.80;;;1.90;;
10509;SDS011;5303;53.266;10.410;2022-12-07T14:10:41;6.43;;;1.80;;
10509;SDS011;5303;53.266;10.410;2022-12-07T14:13:33;3.63;;;1.73;;
10509;SDS011;5303;53.266;10.410;2022-12-07T14:18:50;8.67;;;3.07;;
10509;SDS011;5303;53.266;10.410;2022-12-07T14:21:17;7.23;;;2.33;;
10509;SDS011;5303;53.266;10.410;2022-12-07T14:24:10;5.30;;;2.00;;
10509;SDS011;5303;53.266;10.410;2022-12-07T14:26:40;3.87;;;2.10;;
10509;SDS011;5303;53.266;10.410;2022-12-07T14:29:22;9.90;;;2.70;;
10509;SDS011;5303;53.266;10.410;2022-12-07T14:31:56;5.13;;;2.27;;
10509;SDS011;5303;53.266;10.410;2022-12-07T14:34:24;6.40;;;2.10;;
10509;SDS011;5303;53.266;10.410;2022-12-07T14:36:49;4.57;;;2.13;;
10509;SDS011;5303;53.266;10.410;2022-12-07T14:39:15;3.90;;;2.17;;
10509;SDS011;5303;53.266;10.410;2022-12-07T14:41:41;4.47;;;1.80;;
10509;SDS011;5303;53.266;10.410;2022-12-07T14:44:15;7.97;;;2.60;;
10509;SDS011;5303;53.266;10.410;2022-12-07T14:46:41;6.43;;;2.83;;
10509;SDS011;5303;53.266;10.410;2022-12-07T14:49:06;5.20;;;2.13;;
10509;SDS011;5303;53.266;10.410;2022-12-07T14:51:32;6.77;;;2.37;;
10509;SDS011;5303;53.266;10.410;2022-12-07T14:54:00;4.60;;;1.70;;
10509;SDS011;5303;53.266;10.410;2022-12-07T14:56:26;3.77;;;1.70;;
10509;SDS011;5303;53.266;10.410;2022-12-07T14:58:52;6.23;;;2.33;;
10509;SDS011;5303;53.266;10.410;2022-12-07T15:01:19;7.28;;;2.60;;
10509;SDS011;5303;53.266;10.410;2022-12-07T15:03:44;6.87;;;2.30;;
10509;SDS011;5303;53.266;10.410;2022-12-07T15:06:10;5.97;;;2.23;;
10509;SDS011;5303;53.266;10.410;2022-12-07T15:08:38;7.40;;;2.33;;
10509;SDS011;5303;53.266;10.410;2022-12-07T15:11:04;4.73;;;2.07;;
10509;SDS011;5303;53.266;10.410;2022-12-07T15:13:29;7.23;;;2.07;;
10509;SDS011;5303;53.266;10.410;2022-12-07T15:16:13;5.73;;;2.37;;
10509;SDS011;5303;53.266;10.410;2022-12-07T15:18:44;5.57;;;2.23;;
10509;SDS011;5303;53.266;10.410;2022-12-07T15:21:14;2.77;;;2.13;;
10509;SDS011;5303;53.266;10.410;2022-12-07T15:23:39;4.03;;;1.90;;
10509;SDS011;5303;53.266;10.410;2022-12-07T15:26:05;7.10;;;1.90;;
10509;SDS011;5303;53.266;10.410;2022-12-07T15:28:30;5.93;;;2.00;;
10509;SDS011;5303;53.266;10.410;2022-12-07T15:30:55;4.63;;;2.00;;
10509;SDS011;5303;53.266;10.410;2022-12-07T15:33:20;5.17;;;2.20;;
10509;SDS011;5303;53.266;10.410;2022-12-07T15:35:46;6.63;;;2.60;;
10509;SDS011;5303;53.266;10.410;2022-12-07T15:38:12;11.67;;;2.63;;
10509;SDS011;5303;53.266;10.410;2022-12-07T15:40:37;5.47;;;2.40;;
10509;SDS011;5303;53.266;10.410;2022-12-07T15:43:03;4.20;;;2.13;;
10509;SDS011;5303;53.266;10.410;2022-12-07T15:45:29;5.33;;;2.10;;
10509;SDS011;5303;53.266;10.410;2022-12-07T15:47:54;4.40;;;2.30;;
10509;SDS011;5303;53.266;10.410;2022-12-07T15:50:22;5.00;;;2.30;;
10509;SDS011;5303;53.266;10.410;2022-12-07T15:52:48;3.07;;;2.10;;
10509;SDS011;5303;53.266;10.410;2022-12-07T15:55:14;7.70;;;2.60;;
10509;SDS011;5303;53.266;10.410;2022-12-07T15:57:39;5.57;;;2.57;;
10509;SDS011;5303;53.266;10.410;2022-12-07T16:00:06;6.00;;;2.67;;
10509;SDS011;5303;53.266;10.410;2022-12-07T16:02:33;5.87;;;2.30;;
10509;SDS011;5303;53.266;10.410;2022-12-07T16:04:58;5.63;;;3.00;;
10509;SDS011;5303;53.266;10.410;2022-12-07T16:07:24;6.90;;;2.13;;
10509;SDS011;5303;53.266;10.410;2022-12-07T16:09:49;7.60;;;2.30;;
10509;SDS011;5303;53.266;10.410;2022-12-07T16:12:15;5.83;;;2.10;;
10509;SDS011;5303;53.266;10.410;2022-12-07T16:14:40;6.43;;;3.10;;
10509;SDS011;5303;53.266;10.410;2022-12-07T16:17:06;6.33;;;2.20;;
10509;SDS011;5303;53.266;10.410;2022-12-07T16:19:32;4.37;;;2.13;;
10509;SDS011;5303;53.266;10.410;2022-12-07T16:21:58;4.70;;;2.30;;
10509;SDS011;5303;53.266;10.410;2022-12-07T16:24:24;9.30;;;3.10;;
10509;SDS011;5303;53.266;10.410;2022-12-07T16:26:50;6.60;;;3.47;;
10509;SDS011;5303;53.266;10.410;2022-12-07T16:29:15;12.50;;;3.20;;
10509;SDS011;5303;53.266;10.410;2022-12-07T16:31:41;7.13;;;2.93;;
10509;SDS011;5303;53.266;10.410;2022-12-07T16:34:07;5.87;;;2.83;;
10509;SDS011;5303;53.266;10.410;2022-12-07T16:36:33;6.30;;;2.77;;
10509;SDS011;5303;53.266;10.410;2022-12-07T16:38:59;4.50;;;3.13;;
10509;SDS011;5303;53.266;10.410;2022-12-07T16:41:25;6.87;;;3.67;;
10509;SDS011;5303;53.266;10.410;2022-12-07T16:43:51;8.07;;;4.40;;
10509;SDS011;5303;53.266;10.410;2022-12-07T16:46:16;8.63;;;3.67;;
10509;SDS011;5303;53.266;10.410;2022-12-07T16:48:42;6.80;;;4.33;;
10509;SDS011;5303;53.266;10.410;2022-12-07T16:51:09;10.52;;;7.10;;
10509;SDS011;5303;53.266;10.410;2022-12-07T16:53:36;10.90;;;7.13;;
10509;SDS011;5303;53.266;10.410;2022-12-07T16:56:03;17.00;;;7.70;;